| time (UTC) | temp C | wind direction | speed KPH | gust KPH | rain 1hr cm | rain 24hr cm | rain mn cm | humidity % | barometer mb |
| 20260906023110 | 11 | 270 | 3.2 | 0.0 | 0.00 | 0.00 | 0.00 | 81 | 1026.0 |
| 20260906020242 | 12 | 0 | 3.2 | 0.0 | 0.00 | 0.00 | 0.00 | 76 | 1026.0 |
| 20260906013110 | 10 | 0 | 3.2 | 0.0 | 0.00 | 0.00 | 0.00 | 87 | 1026.0 |
| 20260906010112 | 10 | 240 | 3.2 | 0.0 | 0.00 | 0.00 | 0.00 | 81 | 1026.0 |
| 20260906003110 | 11 | 0 | 0.0 | 0.0 | 0.00 | 0.00 | 0.00 | 76 | 1026.0 |
| 20260906000110 | 12 | 0 | 3.2 | 0.0 | 0.00 | 0.00 | 0.00 | 76 | 1025.0 |
| 20260905233231 | 12 | 0 | 3.2 | 0.0 | 0.00 | 0.00 | 0.00 | 71 | 1025.0 |
| 20260905230246 | 12 | 0 | 1.6 | 0.0 | 0.00 | 0.00 | 0.00 | 76 | 1025.0 |
| 20260905223110 | 13 | 240 | 4.8 | 0.0 | 0.00 | 0.00 | 0.00 | 62 | 1025.0 |
| 20260905220243 | 15 | 0 | 3.2 | 0.0 | 0.00 | 0.00 | 0.00 | 58 | 1025.0 |
| 20260905213109 | 16 | 0 | 3.2 | 0.0 | 0.00 | 0.00 | 0.00 | 55 | 1025.0 |
| 20260905210243 | 16 | 260 | 8.0 | 0.0 | 0.00 | 0.00 | 0.00 | 55 | 1024.0 |
| 20260905210106 | 16 | 260 | 8.0 | 0.0 | 0.00 | 0.00 | 0.00 | 55 | 1024.0 |
| 20260905205144 | 16 | 260 | 8.0 | 0.0 | 0.00 | 0.00 | 0.00 | 55 | 1024.0 |
| 20260905204744 | 16 | 260 | 8.0 | 0.0 | 0.00 | 0.00 | 0.00 | 55 | 1024.0 |
| 20260905204145 | 16 | 260 | 8.0 | 0.0 | 0.00 | 0.00 | 0.00 | 55 | 1024.0 |
| 20260905203245 | 16 | 260 | 8.0 | 0.0 | 0.00 | 0.00 | 0.00 | 55 | 1024.0 |
| 20260905200945 | 16 | 260 | 4.8 | 0.0 | 0.00 | 0.00 | 0.00 | 55 | 1024.0 |
| 20260905200349 | 16 | 260 | 4.8 | 0.0 | 0.00 | 0.00 | 0.00 | 55 | 1024.0 |
| 20260905195945 | 17 | 0 | 3.2 | 0.0 | 0.00 | 0.00 | 0.00 | 51 | 1023.0 |
| 20260905195245 | 17 | 0 | 3.2 | 0.0 | 0.00 | 0.00 | 0.00 | 51 | 1023.0 |
| 20260905194145 | 17 | 0 | 3.2 | 0.0 | 0.00 | 0.00 | 0.00 | 51 | 1023.0 |
| 20260905193458 | 17 | 0 | 3.2 | 0.0 | 0.00 | 0.00 | 0.00 | 51 | 1023.0 |
| 20260905193245 | 17 | 0 | 3.2 | 0.0 | 0.00 | 0.00 | 0.00 | 51 | 1023.0 |
| 20260905192746 | 17 | 300 | 8.0 | 0.0 | 0.00 | 0.00 | 0.00 | 45 | 1023.0 |
| 20260905192159 | 17 | 300 | 8.0 | 0.0 | 0.00 | 0.00 | 0.00 | 45 | 1023.0 |
| 20260905191645 | 17 | 300 | 8.0 | 0.0 | 0.00 | 0.00 | 0.00 | 45 | 1023.0 |
| 20260905181345 | 20 | 300 | 8.0 | 0.0 | 0.00 | 0.00 | 0.00 | 42 | 1022.0 |
| 20260905181145 | 20 | 300 | 8.0 | 0.0 | 0.00 | 0.00 | 0.00 | 42 | 1022.0 |
| 20260905180745 | 20 | 300 | 8.0 | 0.0 | 0.00 | 0.00 | 0.00 | 42 | 1022.0 |
| 20260905180348 | 20 | 300 | 8.0 | 0.0 | 0.00 | 0.00 | 0.00 | 42 | 1022.0 |
| 20260905180147 | 20 | 300 | 8.0 | 0.0 | 0.00 | 0.00 | 0.00 | 42 | 1022.0 |
| 20260905175445 | 21 | 290 | 11.3 | 0.0 | 0.00 | 0.00 | 0.00 | 40 | 1022.0 |
| 20260905175245 | 21 | 290 | 11.3 | 0.0 | 0.00 | 0.00 | 0.00 | 40 | 1022.0 |
| 20260905174745 | 21 | 290 | 11.3 | 0.0 | 0.00 | 0.00 | 0.00 | 40 | 1022.0 |
| 20260905174145 | 21 | 290 | 11.3 | 0.0 | 0.00 | 0.00 | 0.00 | 40 | 1022.0 |
| 20260905173459 | 21 | 290 | 11.3 | 0.0 | 0.00 | 0.00 | 0.00 | 40 | 1022.0 |
| 20260905172745 | 22 | 280 | 14.5 | 0.0 | 0.00 | 0.00 | 0.00 | 37 | 1021.0 |
| 20260905172159 | 22 | 280 | 14.5 | 0.0 | 0.00 | 0.00 | 0.00 | 37 | 1021.0 |
| 20260905171607 | 22 | 280 | 14.5 | 0.0 | 0.00 | 0.00 | 0.00 | 37 | 1021.0 |
| 20260905170559 | 22 | 280 | 14.5 | 0.0 | 0.00 | 0.00 | 0.00 | 37 | 1021.0 |
| 20260905170112 | 22 | 280 | 14.5 | 0.0 | 0.00 | 0.00 | 0.00 | 37 | 1021.0 |
| 20260905163846 | 22 | 280 | 11.3 | 0.0 | 0.00 | 0.00 | 0.00 | 40 | 1021.0 |
| 20260905163238 | 22 | 280 | 11.3 | 0.0 | 0.00 | 0.00 | 0.00 | 40 | 1021.0 |
| 20260905162944 | 22 | 280 | 12.9 | 0.0 | 0.00 | 0.00 | 0.00 | 37 | 1020.0 |
| 20260905162259 | 22 | 280 | 12.9 | 0.0 | 0.00 | 0.00 | 0.00 | 37 | 1020.0 |
| 20260905161646 | 22 | 280 | 12.9 | 0.0 | 0.00 | 0.00 | 0.00 | 37 | 1020.0 |
| 20260905161146 | 22 | 280 | 12.9 | 0.0 | 0.00 | 0.00 | 0.00 | 37 | 1020.0 |
| 20260905160845 | 22 | 280 | 12.9 | 0.0 | 0.00 | 0.00 | 0.00 | 37 | 1020.0 |
| 20260905160347 | 22 | 280 | 12.9 | 0.0 | 0.00 | 0.00 | 0.00 | 37 | 1020.0 |
| 20260905154745 | 22 | 270 | 14.5 | 0.0 | 0.00 | 0.00 | 0.00 | 38 | 1020.0 |
| 20260905154606 | 22 | 270 | 14.5 | 0.0 | 0.00 | 0.00 | 0.00 | 38 | 1020.0 |
| 20260905154245 | 22 | 270 | 14.5 | 0.0 | 0.00 | 0.00 | 0.00 | 38 | 1020.0 |
| 20260905151856 | 22 | 260 | 19.3 | 37.0 | 0.00 | 0.00 | 0.00 | 40 | 1020.0 |
| 20260905151146 | 22 | 260 | 19.3 | 37.0 | 0.00 | 0.00 | 0.00 | 40 | 1020.0 |
| 20260905150644 | 22 | 260 | 19.3 | 37.0 | 0.00 | 0.00 | 0.00 | 40 | 1020.0 |
| 20260905145945 | 22 | 260 | 20.9 | 0.0 | 0.00 | 0.00 | 0.00 | 38 | 1020.0 |
| 20260905145645 | 22 | 260 | 20.9 | 0.0 | 0.00 | 0.00 | 0.00 | 38 | 1020.0 |
| 20260905145144 | 22 | 260 | 20.9 | 0.0 | 0.00 | 0.00 | 0.00 | 38 | 1020.0 |
| 20260905144245 | 22 | 260 | 20.9 | 0.0 | 0.00 | 0.00 | 0.00 | 38 | 1020.0 |
| 20260905143746 | 22 | 260 | 20.9 | 0.0 | 0.00 | 0.00 | 0.00 | 38 | 1020.0 |
| 20260905142152 | 22 | 250 | 20.9 | 40.2 | 0.00 | 0.00 | 0.00 | 40 | 1020.0 |
| 20260905140458 | 22 | 250 | 20.9 | 40.2 | 0.00 | 0.00 | 0.00 | 40 | 1020.0 |
| 20260905140150 | 22 | 250 | 20.9 | 40.2 | 0.00 | 0.00 | 0.00 | 40 | 1020.0 |
| 20260905135107 | 22 | 250 | 20.9 | 41.8 | 0.00 | 0.00 | 0.00 | 46 | 1020.0 |
| 20260905134644 | 22 | 250 | 20.9 | 41.8 | 0.00 | 0.00 | 0.00 | 46 | 1020.0 |
| 20260905134245 | 22 | 250 | 20.9 | 41.8 | 0.00 | 0.00 | 0.00 | 46 | 1020.0 |
| 20260905133846 | 22 | 250 | 20.9 | 41.8 | 0.00 | 0.00 | 0.00 | 46 | 1020.0 |
| 20260905133458 | 22 | 250 | 20.9 | 41.8 | 0.00 | 0.00 | 0.00 | 46 | 1020.0 |
| 20260905133145 | 22 | 250 | 20.9 | 41.8 | 0.00 | 0.00 | 0.00 | 46 | 1020.0 |
| 20260905132255 | 22 | 250 | 22.5 | 40.2 | 0.00 | 0.00 | 0.00 | 46 | 1020.0 |
| 20260905131644 | 22 | 250 | 22.5 | 40.2 | 0.00 | 0.00 | 0.00 | 46 | 1020.0 |
| 20260905131145 | 22 | 250 | 22.5 | 40.2 | 0.00 | 0.00 | 0.00 | 46 | 1020.0 |
| 20260905130745 | 22 | 250 | 22.5 | 40.2 | 0.00 | 0.00 | 0.00 | 46 | 1020.0 |
| 20260905130251 | 22 | 250 | 22.5 | 40.2 | 0.00 | 0.00 | 0.00 | 46 | 1020.0 |
| 20260905125645 | 22 | 250 | 20.9 | 0.0 | 0.00 | 0.00 | 0.00 | 46 | 1020.0 |
| 20260905125446 | 22 | 250 | 20.9 | 0.0 | 0.00 | 0.00 | 0.00 | 46 | 1020.0 |
| 20260905125245 | 22 | 250 | 20.9 | 0.0 | 0.00 | 0.00 | 0.00 | 46 | 1020.0 |
| 20260905124945 | 22 | 250 | 20.9 | 0.0 | 0.00 | 0.00 | 0.00 | 46 | 1020.0 |
| 20260905124606 | 22 | 250 | 20.9 | 0.0 | 0.00 | 0.00 | 0.00 | 46 | 1020.0 |
| 20260905124106 | 22 | 250 | 20.9 | 0.0 | 0.00 | 0.00 | 0.00 | 46 | 1020.0 |
| 20260905123646 | 22 | 250 | 20.9 | 0.0 | 0.00 | 0.00 | 0.00 | 46 | 1020.0 |
| 20260905123345 | 22 | 250 | 20.9 | 0.0 | 0.00 | 0.00 | 0.00 | 46 | 1020.0 |
| 20260905123145 | 21 | 260 | 19.3 | 0.0 | 0.00 | 0.00 | 0.00 | 49 | 1021.0 |
| 20260905122152 | 21 | 260 | 19.3 | 0.0 | 0.00 | 0.00 | 0.00 | 49 | 1021.0 |
| 20260905121756 | 21 | 260 | 19.3 | 0.0 | 0.00 | 0.00 | 0.00 | 49 | 1021.0 |
| 20260905121145 | 21 | 260 | 19.3 | 0.0 | 0.00 | 0.00 | 0.00 | 49 | 1021.0 |
| 20260905120601 | 21 | 260 | 19.3 | 0.0 | 0.00 | 0.00 | 0.00 | 49 | 1021.0 |
| 20260905115853 | 21 | 250 | 19.3 | 0.0 | 0.00 | 0.00 | 0.00 | 52 | 1021.0 |
| 20260905114106 | 21 | 250 | 19.3 | 0.0 | 0.00 | 0.00 | 0.00 | 52 | 1021.0 |
| 20260905113237 | 21 | 250 | 19.3 | 0.0 | 0.00 | 0.00 | 0.00 | 52 | 1021.0 |
| 20260905112745 | 20 | 260 | 19.3 | 0.0 | 0.00 | 0.00 | 0.00 | 56 | 1021.0 |
| 20260905112258 | 20 | 260 | 19.3 | 0.0 | 0.00 | 0.00 | 0.00 | 56 | 1021.0 |
| 20260905111859 | 20 | 260 | 19.3 | 0.0 | 0.00 | 0.00 | 0.00 | 56 | 1021.0 |
| 20260905110112 | 20 | 260 | 19.3 | 0.0 | 0.00 | 0.00 | 0.00 | 56 | 1021.0 |
| 20260905105245 | 20 | 250 | 19.3 | 0.0 | 0.00 | 0.00 | 0.00 | 60 | 1021.0 |
| 20260905105107 | 20 | 250 | 19.3 | 0.0 | 0.00 | 0.00 | 0.00 | 60 | 1021.0 |
| 20260905104645 | 20 | 250 | 19.3 | 0.0 | 0.00 | 0.00 | 0.00 | 60 | 1021.0 |
| 20260905104345 | 20 | 250 | 19.3 | 0.0 | 0.00 | 0.00 | 0.00 | 60 | 1021.0 |
| 20260905103238 | 20 | 250 | 19.3 | 0.0 | 0.00 | 0.00 | 0.00 | 60 | 1021.0 |
| 20260905102845 | 18 | 240 | 20.9 | 0.0 | 0.00 | 0.00 | 0.00 | 63 | 1021.0 |
| 20260905102350 | 18 | 240 | 20.9 | 0.0 | 0.00 | 0.00 | 0.00 | 63 | 1021.0 |
| 20260905101945 | 18 | 240 | 20.9 | 0.0 | 0.00 | 0.00 | 0.00 | 63 | 1021.0 |
| 20260905101445 | 18 | 240 | 20.9 | 0.0 | 0.00 | 0.00 | 0.00 | 63 | 1021.0 |
| 20260905100845 | 18 | 240 | 20.9 | 0.0 | 0.00 | 0.00 | 0.00 | 63 | 1021.0 |
| 20260905100351 | 18 | 240 | 20.9 | 0.0 | 0.00 | 0.00 | 0.00 | 63 | 1021.0 |
| 20260905095245 | 17 | 230 | 22.5 | 0.0 | 0.00 | 0.00 | 0.00 | 67 | 1021.0 |
| 20260905094845 | 17 | 230 | 22.5 | 0.0 | 0.00 | 0.00 | 0.00 | 67 | 1021.0 |
| 20260905094245 | 17 | 230 | 22.5 | 0.0 | 0.00 | 0.00 | 0.00 | 67 | 1021.0 |
| 20260905093746 | 17 | 230 | 22.5 | 0.0 | 0.00 | 0.00 | 0.00 | 67 | 1021.0 |
| 20260905092445 | 17 | 240 | 19.3 | 0.0 | 0.00 | 0.00 | 0.00 | 72 | 1021.0 |
| 20260905091958 | 17 | 240 | 19.3 | 0.0 | 0.00 | 0.00 | 0.00 | 72 | 1021.0 |
| 20260905090846 | 17 | 240 | 19.3 | 0.0 | 0.00 | 0.00 | 0.00 | 72 | 1021.0 |
| 20260905090244 | 17 | 240 | 19.3 | 0.0 | 0.00 | 0.00 | 0.00 | 72 | 1021.0 |
| 20260905084245 | 17 | 250 | 12.9 | 0.0 | 0.00 | 0.00 | 0.00 | 72 | 1021.0 |
| 20260905083110 | 17 | 250 | 12.9 | 0.0 | 0.00 | 0.00 | 0.00 | 72 | 1021.0 |
| 20260905080111 | 16 | 240 | 12.9 | 0.0 | 0.00 | 0.00 | 0.00 | 77 | 1021.0 |
| 20260905073237 | 15 | 230 | 9.7 | 0.0 | 0.00 | 0.00 | 0.00 | 82 | 1021.0 |
| 20260905070112 | 13 | 220 | 11.3 | 0.0 | 0.00 | 0.00 | 0.00 | 87 | 1020.0 |
| 20260905063110 | 13 | 230 | 9.7 | 0.0 | 0.00 | 0.00 | 0.00 | 82 | 1020.0 |
| 20260905060244 | 12 | 230 | 11.3 | 0.0 | 0.00 | 0.00 | 0.00 | 87 | 1020.0 |
| 20260905053110 | 12 | 190 | 9.7 | 0.0 | 0.00 | 0.00 | 0.00 | 87 | 1020.0 |
| 20260905050243 | 12 | 200 | 12.9 | 0.0 | 0.00 | 0.00 | 0.00 | 87 | 1019.0 |
| 20260905043110 | 12 | 220 | 12.9 | 0.0 | 0.00 | 0.00 | 0.00 | 93 | 1019.0 |
| 20260905040111 | 13 | 230 | 14.5 | 0.0 | 0.00 | 0.00 | 0.00 | 87 | 1019.0 |
| 20260905033231 | 15 | 230 | 16.1 | 0.0 | 0.00 | 0.00 | 0.00 | 82 | 1019.0 |
| 20260905030113 | 16 | 240 | 9.7 | 0.0 | 0.00 | 0.00 | 0.00 | 87 | 1019.0 |